2018 MXGP Results: RUSSIA

MXGP

Pos Nr Rider Nat. Fed. Bike Time laps Diff. First Diff. Prev. Bestlaptime in lap Speed
1 84 Herlings, Jeffrey NED KNMV KTM 35:20.083 18 0:00.000 0:00.000 1:53.305 10 49.5
2 222 Cairoli, Antonio ITA FMI KTM 35:26.236 18 0:06.153 0:06.153 1:53.743 6 49.3
3 21 Paulin, Gautier FRA MCM Husqvarna 36:16.165 18 0:56.082 0:49.929 1:56.397 3 48.2
4 243 Gajser, Tim SLO AMZS Honda 36:22.188 18 1:02.105 0:06.023 1:56.516 5 48.1
5 25 Desalle, Clement BEL FMB Kawasaki 36:27.643 18 1:07.560 0:05.455 1:57.064 2 47.9
6 259 Coldenhoff, Glenn NED KNMV KTM 36:32.065 18 1:11.982 0:04.422 1:56.691 3 48.1
7 89 Van Horebeek, Jeremy BEL FMB Yamaha 36:39.473 18 1:19.390 0:07.408 1:57.114 6 47.9
8 91 Seewer, Jeremy SUI FMS Yamaha 36:46.560 18 1:26.477 0:07.087 1:57.617 3 47.7
9 99 Anstie, Max GBR ACU Husqvarna 36:59.470 18 1:39.387 0:12.910 1:58.022 5 47.5
10 33 Lieber, Julien BEL FMB Kawasaki 37:02.007 18 1:41.924 0:02.537 1:58.273 5 47.4
11 77 Lupino, Alessandro ITA FMI Kawasaki 37:03.829 18 1:43.746 0:01.822 1:59.290 4 47
12 17 Butron, Jose ESP RFME KTM 37:06.990 18 1:46.907 0:03.161 1:59.515 8 46.9
13 12 Nagl, Maximilian GER DMSB TM 37:08.420 18 1:48.337 0:01.430 1:59.428 10 47
14 22 Strijbos, Kevin BEL FMB KTM 35:22.397 17 1 lap 1 lap 1:59.335 6 47
15 7 Leok, Tanel EST EMF Husqvarna 35:29.719 17 1 lap 0:07.322 2:01.028 6 46.4
16 27 Jasikonis, Arminas LTU LMSF Honda 35:32.721 17 1 lap 0:03.002 1:59.006 6 47.1
17 152 Petrov, Petar BUL BMF Honda 35:50.216 17 1 lap 0:17.495 2:01.047 6 46.3
18 920 Valentin, Ander ESP RFME Husqvarna 35:50.380 17 1 lap 0:00.164 2:01.225 7 46.3
19 128 Monticelli, Ivo ITA FMI Yamaha 36:10.300 17 1 lap 0:19.920 1:59.205 3 47.1
20 151 Kullas, Harri EST EMF Husqvarna 36:18.090 17 1 lap 0:07.790 2:01.523 5 46.2
21 141 Desprey, Maxime FRA FFM Kawasaki 36:20.261 17 1 lap 0:02.171 2:00.926 5 46.4
22 20 Bengtsson, Filip SWE SVEMO Yamaha 36:28.993 17 1 lap 0:08.732 2:01.372 5 46.2
23 291 Karro, Matiss LAT LAMSF Kawasaki 36:30.116 17 1 lap 0:01.123 2:02.253 5 45.9
24 411 Kahro, Erki EST EMF KTM 36:54.568 17 1 lap 0:24.452 2:03.097 6 45.6
25 471 Tarasov, Volodymyr UKR FMU KTM 37:43.281 17 1 lap 0:48.713 2:05.442 5 44.7
26 62 Gercar, Klemen SLO AMZS Husqvarna 35:25.365 16 2 laps 1 lap 2:05.298 5 44.8
27 777 Bobryshev, Evgeny RUS MFR Suzuki 20:53.463 10 8 laps 6 laps 1:58.464 5 47.4
28 6 Paturel, Benoit FRA FFM KTM 19:17.296 9 9 laps 1 lap 2:00.974 4 46.4
29 83 Renkens, Nathan BEL FMB Honda 11:33.590 5 13 laps 4 laps 2:06.485 3 44.4
30 461 Febvre, Romain FRA FFM Yamaha 6:52.527 3 15 laps 2 laps 1:58.873 3 47.2

 

MX2

Pos Nr Rider Nat. Fed. Bike Time laps Diff. First Diff. Prev. Bestlaptime in lap Speed
1 61 Prado, Jorge ESP RFME KTM 34:24.759 17 0:00.000 0:00.000 1:55.754 2 48.5
2 19 Olsen, Thomas Kjer DEN DMU Husqvarna 34:27.440 17 0:02.681 0:02.681 1:57.085 5 47.9
3 193 Geerts, Jago BEL FMB Yamaha 34:29.270 17 0:04.511 0:01.830 1:56.440 2 48.2
4 919 Watson, Ben GBR ACU Yamaha 34:34.476 17 0:09.717 0:05.206 1:57.275 4 47.8
5 1 Jonass, Pauls LAT LAMSF KTM 34:51.717 17 0:26.958 0:17.241 1:58.673 14 47.3
6 46 Pootjes, Davy NED KNMV KTM 35:01.365 17 0:36.606 0:09.648 1:58.372 3 47.4
7 10 Vlaanderen, Calvin RSA KNMV Honda 35:11.766 17 0:47.007 0:10.401 1:58.336 4 47.4
8 747 Cervellin, Michele ITA FMI Honda 35:21.713 17 0:56.954 0:09.947 2:00.765 5 46.5
9 66 Larranaga Olano, Iker ESP RFME Husqvarna 35:23.347 17 0:58.588 0:01.634 2:00.406 2 46.6
10 14 Beaton, Jed AUS MA Kawasaki 35:23.874 17 0:59.115 0:00.527 1:59.164 2 47.1
11 34 De Waal, Micha-Boy NED KNMV Honda 35:36.703 17 1:11.944 0:12.829 1:59.878 6 46.8
12 29 Jacobi, Henry GER DMSB Husqvarna 35:45.826 17 1:21.067 0:09.123 2:01.704 13 46.1
13 70 Fernandez, Ruben ESP RFME Kawasaki 35:50.641 17 1:25.882 0:04.815 1:59.931 3 46.8
14 321 Bernardini, Samuele ITA FMI TM 36:06.366 17 1:41.607 0:15.725 2:02.009 5 46
15 338 Herbreteau, David FRA FFM KTM 36:12.737 17 1:47.978 0:06.371 2:02.253 4 45.9
16 426 Mewse, Conrad GBR ACU KTM 36:18.442 17 1:53.683 0:05.705 2:01.915 3 46
17 75 Roosiorg, Hardi EST EMF KTM 36:27.049 17 2:02.290 0:08.607 2:02.975 3 45.6
18 226 Koch, Tom GER DMSB KTM 36:30.272 17 2:05.513 0:03.223 2:04.025 6 45.2
19 44 Lesiardo, Morgan ITA FMI KTM 34:26.457 16 1 lap 1 lap 2:04.480 7 45.1
20 102 Sikyna, Richard SVK SMF KTM 34:28.668 16 1 lap 0:02.211 2:04.085 5 45.2
21 129 Agard-Michelsen, Sander NOR NMF Yamaha 34:32.866 16 1 lap 0:04.198 2:04.447 5 45.1
22 101 Pichon, Zachary FRA FFM KTM 34:35.071 16 1 lap 0:02.205 2:02.390 2 45.8
23 64 Covington, Thomas USA MUL Husqvarna 19:08.249 9 8 laps 7 laps 1:58.715 7 47.3
24 56 Weltin, Marshal USA AMA Honda 15:09.145 7 10 laps 2 laps 2:01.179 4 46.3
25 95 Furlotti, Simone ITA FMI Yamaha 14:27.627 6 11 laps 1 lap 2:02.954 3 45.6
26 26 Bertuzzi, Nicola ITA FMI KTM 10:22.396 4 13 laps 2 laps 2:08.197 2 43.8

 

EMX 250

Pos Nr Rider Nat. Fed. Bike Time laps Diff. First Diff. Prev. Bestlaptime in lap Speed
1 11 Haarup, Mikkel DEN DMU Husqvarna 31:09.071 15 0:00.000 0:00.000 1:59.974 8 46.8
2 119 Pocock, Mel GBR ACU Husqvarna 31:19.266 15 0:10.195 0:10.195 2:00.181 7 46.7
3 39 Van De Moosdijk, Roan NED KNMV Yamaha 31:24.278 15 0:15.207 0:05.012 2:00.716 5 46.5
4 50 Barr, Martin GBR MCUI Husqvarna 31:25.547 15 0:16.476 0:01.269 2:00.206 7 46.7
5 172 Boisrame, Mathys FRA FFM Honda 31:27.428 15 0:18.357 0:01.881 2:00.423 6 46.6
6 22 Facchetti, Gianluca ITA FMI KTM 31:33.727 15 0:24.656 0:06.299 2:01.682 7 46.1
7 49 Lawrence, Jett AUS MA Suzuki 31:39.094 15 0:30.023 0:05.367 2:00.170 7 46.7
8 24 Horgmo, Kevin NOR NMF KTM 31:41.146 15 0:32.075 0:02.052 2:01.873 7 46
9 517 Gifting, Isak SWE SVEMO KTM 31:44.501 15 0:35.430 0:03.355 2:00.976 10 46.4
10 104 Sydow, Jeremy GER DMSB KTM 31:56.940 15 0:47.869 0:12.439 2:02.105 5 45.9
11 511 Clarke, Steven GBR ACU Honda 31:57.760 15 0:48.689 0:00.820 2:03.257 5 45.5
12 225 Strubhart Moreau, Brian FRA FFM Kawasaki 31:59.771 15 0:50.700 0:02.011 2:02.207 5 45.9
13 2 Dunn, James GBR ACU KTM 32:00.368 15 0:51.297 0:00.597 2:01.906 7 46
14 132 Kutsar, Karel EST EMF KTM 32:02.598 15 0:53.527 0:02.230 2:03.093 5 45.6
15 766 Sandner, Michael AUT AMF KTM 32:04.719 15 0:55.648 0:02.121 2:03.241 9 45.5
16 16 Sabulis, Karlis LAT LAMSF Yamaha 32:16.299 15 1:07.228 0:11.580 2:04.175 4 45.2
17 32 Conijn, Marcel NED KNMV Kawasaki 32:18.092 15 1:09.021 0:01.793 2:04.609 7 45
18 403 Boegh Damm, Bastian DEN DMU Kawasaki 32:21.164 15 1:12.093 0:03.072 2:02.606 5 45.8
19 53 Walsh, Dylan NZL MNZ Husqvarna 32:22.365 15 1:13.294 0:01.201 2:03.231 3 45.5
20 105 Genot, Cyril BEL FMB KTM 32:23.144 15 1:14.073 0:00.779 2:03.885 4 45.3
21 720 Goupillon, Pierre FRA FFM Kawasaki 32:23.435 15 1:14.364 0:00.291 2:04.267 4 45.1
22 303 Forato, Alberto ITA FMI Honda 32:25.170 15 1:16.099 0:01.735 2:03.327 7 45.5
23 41 Grothues, Caleb AUS MA Husqvarna 32:27.093 15 1:18.022 0:01.923 2:04.663 5 45
24 350 Lugana, Paolo ITA FMI Yamaha 32:28.645 15 1:19.574 0:01.552 2:02.416 2 45.8
25 43 Bres, Natanael FRA FFM KTM 32:31.002 15 1:21.931 0:02.357 2:05.024 5 44.9
26 98 Kellett, Todd GBR ACU KTM 32:31.424 15 1:22.353 0:00.422 2:04.591 4 45
27 62 Snikers, Arnolds LAT LAMSF Yamaha 32:32.812 15 1:23.741 0:01.388 2:04.371 6 45.1
28 282 Kahrle, Hampus SWE SVEMO KTM 32:37.222 15 1:28.151 0:04.410 2:04.275 6 45.1
29 472 Meier, Glen DEN DMU KTM 32:43.311 15 1:34.240 0:06.089 2:05.107 8 44.8
30 354 Lindstrom, Viking SWE SVEMO Husqvarna 32:44.829 15 1:35.758 0:01.518 2:04.384 8 45.1
31 8 Kratzer, Michael AUT AMF Kawasaki 32:53.915 15 1:44.844 0:09.086 2:05.880 7 44.6
32 17 Bruggmann, Luca LIE LMV Yamaha 32:55.556 15 1:46.485 0:01.641 2:04.512 4 45.1
33 99 Drevinskis, Kristers LAT LAMSF KTM 33:03.141 15 1:54.070 0:07.585 2:05.338 5 44.8
34 501 Andersson, Rasmus SWE SVEMO Husqvarna 33:09.965 15 2:00.894 0:06.824 2:04.276 7 45.1
35 427 Fredriksen, Hakon NOR NMF Honda 31:12.602 14 1 lap 1 lap 2:05.514 4 44.7
36 88 van der Vlist, Freek NED KNMV Honda 24:12.805 11 4 laps 3 laps 2:03.634 3 45.4
37 15 Karka, Dovydas LTU LMSF KTM 20:01.300 9 6 laps 2 laps 2:06.122 5 44.5
38 344 Hultman, Jesper SWE SVEMO KTM 20:12.412 9 6 laps 0:11.112 2:07.421 4 44
39 211 Lapucci, Nicholas ITA FMI Yamaha 13:55.812 6 9 laps 3 laps 2:05.324 4 44.8

 

EMX 125

Pos Nr Rider Nat. Fed. Bike Time laps Diff. First Diff. Prev. Bestlaptime in lap Speed
1 11 Hofer, Rene AUT AMF KTM 30:19.530 14 0:00.000 0:00.000 2:04.306 5 45.1
2 313 Polak, Petr CZE ACCR KTM 30:31.654 14 0:12.124 0:12.124 2:05.188 5 44.8
3 516 Laengenfelder, Simon GER DMSB Husqvarna 30:36.351 14 0:16.821 0:04.697 2:04.217 3 45.2
4 505 Lüning, Arvid SWE SVEMO KTM 30:48.689 14 0:29.159 0:12.338 2:06.976 4 44.2
5 572 Pedersen, Rasmus DEN DMU KTM 30:51.732 14 0:32.202 0:03.043 2:07.040 3 44.2
6 239 Florian, Lion GER DMSB KTM 30:54.980 14 0:35.450 0:03.248 2:07.063 2 44.1
7 98 Benistant, Thibault FRA FFM Yamaha 31:03.443 14 0:43.913 0:08.463 2:07.602 3 44
8 224 Braceras Martinez, David ESP RFME KTM 31:04.913 14 0:45.383 0:01.470 2:06.724 3 44.3
9 223 Bonacorsi, Andrea ITA FMI KTM 31:05.614 14 0:46.084 0:00.701 2:07.222 3 44.1
10 217 Wade, Eddie GBR RFME KTM 31:07.940 14 0:48.410 0:02.326 2:06.599 3 44.3
11 468 Olsson, Filip SWE SVEMO Husqvarna 31:10.244 14 0:50.714 0:02.304 2:07.308 7 44.1
12 81 Meuwissen, Raf NED KNMV KTM 31:12.373 14 0:52.843 0:02.129 2:07.135 3 44.1
13 10 Dankers, Raivo NED KNMV KTM 31:23.453 14 1:03.923 0:11.080 2:07.384 3 44
14 294 Facca, Alessandro ITA FMI KTM 31:25.296 14 1:05.766 0:01.843 2:06.657 2 44.3
15 38 Kovacs, Adam Zsolt HUN MAMS Yamaha 31:28.584 14 1:09.054 0:03.288 2:07.567 3 44
16 696 Gwerder, Mike SUI FMS KTM 31:33.803 14 1:14.273 0:05.219 2:05.800 2 44.6
17 22 Giuzio, Raffaele ITA FMI KTM 31:38.911 14 1:19.381 0:05.108 2:09.764 3 43.2
18 912 Rizzi, Joel GBR ACU Yamaha 31:41.532 14 1:22.002 0:02.621 2:10.296 3 43.1
19 312 Oliver, Oriol ESP RFME KTM 31:42.986 14 1:23.456 0:01.454 2:10.881 3 42.9
20 402 Nieminen, Mauno FIN SML Husqvarna 31:45.773 14 1:26.243 0:02.787 2:10.015 13 43.1
21 100 Talviku, Jorgen-Matthias EST EMF Yamaha 31:46.754 14 1:27.224 0:00.981 2:10.103 7 43.1
22 592 Gustafsson, Axel SWE SVEMO Husqvarna 31:54.469 14 1:34.939 0:07.715 2:10.353 6 43
23 108 Scott, James NZL MNZ KTM 31:55.545 14 1:36.015 0:01.076 2:10.103 3 43.1
24 75 Barcella, Alberto ITA FMI Husqvarna 32:02.575 14 1:43.045 0:07.030 2:10.702 5 42.9
25 731 Mausser, Maks SLO AMZS Husqvarna 32:03.177 14 1:43.647 0:00.602 2:10.133 9 43.1
26 48 Collings, Adam GBR ACU KTM 32:06.919 14 1:47.389 0:03.742 2:11.156 5 42.8
27 249 Miot, Matheo FRA FFM KTM 32:12.835 14 1:53.305 0:05.916 2:06.736 2 44.3
28 270 Guyon, Tom FRA FFM KTM 32:18.277 14 1:58.747 0:05.442 2:09.966 7 43.2
29 120 van der Klij, Brian NED KNMV TM 32:24.423 14 2:04.893 0:06.146 2:12.598 5 42.3
30 31 Bassi, Francesco ITA FMI Husqvarna 32:25.694 14 2:06.164 0:01.271 2:12.557 2 42.3
31 440 Appelt, Marnique GER DMSB KTM 32:45.744 14 2:26.214 0:20.050 2:11.727 2 42.6
32 430 Malin, Wiljam FIN SML Husqvarna 33:29.127 14 3:09.597 0:43.383 2:11.207 6 42.8
33 55 Corti, Lorenzo ITA FMI KTM 30:23.645 13 1 lap 1 lap 2:12.745 6 42.3
34 65 Van de Voorde, Wannes BEL FMB KTM 30:23.790 13 1 lap 0:00.145 2:10.707 6 42.9
35 777 Ozolins, Ralfs-Edgars LAT LAMSF Husqvarna 30:34.782 13 1 lap 0:10.992 2:12.526 5 42.3
36 517 Caspani, Pablo ITA FMI KTM 32:45.666 13 1 lap 2:10.884 2:16.906 3 41
37 771 Lucas Sanz, Mario ESP RFME KTM 14:22.021 6 8 laps 7 laps 2:10.531 3 43
38 651 Vettik, Meico EST EMF KTM 9:47.853 4 10 laps 2 laps 2:09.667 2 43.3
39 125 Weckman, Emil FIN SML KTM 7:28.178 3 11 laps 1 lap 2:07.978 3 43.8
40 180 Ambjörnson, Leopold SWE SVEMO KTM 0:50.710 0 14 laps 3 laps 0:00.000   0

Credit: MXGP